createdAt,value
2018-10-11T00:01:23.014Z,17.63
2018-10-11T00:03:51.231Z,19.37
2018-10-11T00:06:19.487Z,18.70
2018-10-11T00:08:47.750Z,16.47
2018-10-11T00:11:15.962Z,15.27
2018-10-11T00:13:44.193Z,15.73
2018-10-11T00:16:12.425Z,18.80
2018-10-11T00:18:40.681Z,17.57
2018-10-11T00:21:08.942Z,20.37
2018-10-11T00:23:37.398Z,18.90
2018-10-11T00:26:05.682Z,22.40
2018-10-11T00:28:33.932Z,19.83
2018-10-11T00:31:04.479Z,21.63
2018-10-11T00:33:32.771Z,18.97
2018-10-11T00:36:00.989Z,19.37
2018-10-11T00:38:29.238Z,17.23
2018-10-11T00:40:57.433Z,20.13
2018-10-11T00:43:25.683Z,18.40
2018-10-11T00:45:53.882Z,19.33
2018-10-11T00:48:22.406Z,20.03
2018-10-11T00:50:50.649Z,19.23
2018-10-11T00:53:20.007Z,15.80
2018-10-11T00:55:48.260Z,17.80
2018-10-11T00:58:16.493Z,19.87
2018-10-11T01:00:44.737Z,16.93
2018-10-11T01:03:13.003Z,16.50
2018-10-11T01:05:41.262Z,15.03
2018-10-11T01:08:09.495Z,17.63
2018-10-11T01:10:37.814Z,17.13
2018-10-11T01:13:06.398Z,17.37
2018-10-11T01:15:34.625Z,18.20
2018-10-11T01:18:02.898Z,19.57
2018-10-11T01:20:31.139Z,18.23
2018-10-11T01:22:59.392Z,17.60
2018-10-11T01:25:34.574Z,19.03
2018-10-11T01:28:02.877Z,18.00
2018-10-11T01:30:31.115Z,19.97
2018-10-11T01:32:59.367Z,19.77
2018-10-11T01:35:27.640Z,17.47
2018-10-11T01:37:55.917Z,19.77
2018-10-11T01:40:24.387Z,19.43
2018-10-11T01:43:02.366Z,18.07
2018-10-11T01:45:30.586Z,20.23
2018-10-11T01:47:58.986Z,21.40
2018-10-11T01:50:27.580Z,23.73
2018-10-11T01:52:56.623Z,21.63
2018-10-11T01:55:25.596Z,20.63
2018-10-11T01:57:54.282Z,22.70
2018-10-11T02:00:22.506Z,20.17
2018-10-11T02:02:50.729Z,20.10
2018-10-11T02:05:19.065Z,19.67
2018-10-11T02:07:47.276Z,21.13
2018-10-11T02:10:15.742Z,23.03
2018-10-11T02:12:43.995Z,21.17
2018-10-11T02:15:12.177Z,21.33
2018-10-11T02:17:40.468Z,23.10
2018-10-11T02:20:08.784Z,23.00
2018-10-11T02:22:37.083Z,26.57
2018-10-11T02:25:05.401Z,26.37
2018-10-11T02:27:33.611Z,24.20
2018-10-11T02:30:01.825Z,27.60
2018-10-11T02:32:30.052Z,24.60
2018-10-11T02:34:58.410Z,22.87
2018-10-11T02:37:26.806Z,22.27
2018-10-11T02:39:55.354Z,23.63
2018-10-11T02:42:23.599Z,23.33
2018-10-11T02:44:51.925Z,20.67
2018-10-11T02:47:20.158Z,19.77
2018-10-11T02:49:48.562Z,23.23
2018-10-11T02:52:16.881Z,20.70
2018-10-11T02:54:45.208Z,24.87
2018-10-11T02:57:24.509Z,21.07
2018-10-11T02:59:52.765Z,21.07
2018-10-11T03:02:21.134Z,20.60
2018-10-11T03:04:49.859Z,20.70
2018-10-11T03:07:18.839Z,20.53
2018-10-11T03:09:48.038Z,20.50
2018-10-11T03:12:16.613Z,22.47
2018-10-11T03:14:44.960Z,18.57
2018-10-11T03:17:13.329Z,20.30
2018-10-11T03:19:42.533Z,20.20
2018-10-11T03:22:11.332Z,24.00
2018-10-11T03:24:39.929Z,18.43
2018-10-11T03:27:08.194Z,20.10
2018-10-11T03:29:36.562Z,18.83
2018-10-11T03:32:04.832Z,21.00
2018-10-11T03:34:33.100Z,21.93
2018-10-11T03:37:01.387Z,19.90
2018-10-11T03:39:29.810Z,21.10
2018-10-11T03:41:59.067Z,26.47
2018-10-11T03:44:27.880Z,23.50
2018-10-11T03:46:56.195Z,21.90
2018-10-11T03:49:24.626Z,20.57
2018-10-11T03:51:54.041Z,20.33
2018-10-11T03:54:22.306Z,22.63
2018-10-11T03:56:50.555Z,21.10
2018-10-11T03:59:18.886Z,21.30
2018-10-11T04:01:47.274Z,22.33
2018-10-11T04:04:15.630Z,21.47
2018-10-11T04:06:43.870Z,23.80
2018-10-11T04:09:12.106Z,23.10
2018-10-11T04:11:40.362Z,21.87
2018-10-11T04:14:08.787Z,22.90
2018-10-11T04:16:37.162Z,21.77
2018-10-11T04:19:05.517Z,22.13
2018-10-11T04:21:34.850Z,22.50
2018-10-11T04:24:03.272Z,24.00
2018-10-11T04:26:31.512Z,23.67
2018-10-11T04:28:59.931Z,25.73
2018-10-11T04:31:28.165Z,24.50
2018-10-11T04:33:56.504Z,24.83
2018-10-11T04:36:24.791Z,29.43
2018-10-11T04:38:53.208Z,25.93
2018-10-11T04:41:21.537Z,22.30
2018-10-11T04:43:49.798Z,25.43
2018-10-11T04:46:18.153Z,30.17
2018-10-11T04:48:46.445Z,30.07
2018-10-11T04:51:14.683Z,29.73
2018-10-11T04:53:44.247Z,27.43
2018-10-11T04:56:12.447Z,25.60
2018-10-11T04:58:40.688Z,24.37
2018-10-11T05:01:08.899Z,24.93
2018-10-11T05:03:37.115Z,24.93
2018-10-11T05:06:05.371Z,28.10
2018-10-11T05:08:33.613Z,26.50
2018-10-11T05:11:02.023Z,30.03
2018-10-11T05:13:38.769Z,28.87
2018-10-11T05:16:07.217Z,27.93
2018-10-11T05:18:35.528Z,25.57
2018-10-11T05:21:03.800Z,23.40
2018-10-11T05:23:32.032Z,28.13
2018-10-11T05:26:00.390Z,25.63
2018-10-11T05:28:28.555Z,26.47
2018-10-11T05:30:56.900Z,23.33
2018-10-11T05:33:25.438Z,23.50
2018-10-11T05:35:53.749Z,20.83
2018-10-11T05:38:21.961Z,25.13
2018-10-11T05:40:50.176Z,22.70
2018-10-11T05:43:18.463Z,23.63
2018-10-11T05:45:57.245Z,31.00
2018-10-11T05:48:26.626Z,40.03
2018-10-11T05:50:55.135Z,40.03
2018-10-11T05:53:23.830Z,32.00
2018-10-11T05:55:52.072Z,26.33
2018-10-11T05:58:20.759Z,28.90
2018-10-11T06:00:49.515Z,29.20
2018-10-11T06:03:17.825Z,30.33
2018-10-11T06:05:46.080Z,39.00
2018-10-11T06:08:14.346Z,37.50
2018-10-11T06:10:43.777Z,32.77
2018-10-11T06:13:12.649Z,28.97
2018-10-11T06:15:41.341Z,28.63
2018-10-11T06:18:10.258Z,31.23
2018-10-11T06:20:38.537Z,26.93
2018-10-11T06:23:06.825Z,25.20
2018-10-11T06:25:35.072Z,27.73
2018-10-11T06:28:03.924Z,27.37
2018-10-11T06:30:33.349Z,31.87
2018-10-11T06:33:01.634Z,26.33
2018-10-11T06:35:29.922Z,24.50
2018-10-11T06:37:58.818Z,27.90
2018-10-11T06:40:27.101Z,25.80
2018-10-11T06:42:55.421Z,28.10
2018-10-11T06:45:23.679Z,25.03
2018-10-11T06:47:54.431Z,26.93
2018-10-11T06:50:22.720Z,25.20
2018-10-11T06:52:52.975Z,27.53
2018-10-11T06:55:21.169Z,31.13
2018-10-11T06:57:49.396Z,29.73
2018-10-11T07:00:24.242Z,24.87
2018-10-11T07:02:52.470Z,24.70
2018-10-11T07:05:22.724Z,26.00
2018-10-11T07:07:50.945Z,32.43
2018-10-11T07:10:19.186Z,33.77
2018-10-11T07:12:47.909Z,28.13
2018-10-11T07:15:16.797Z,32.23
2018-10-11T07:17:45.112Z,32.77
2018-10-11T07:20:13.405Z,29.97
2018-10-11T07:22:41.946Z,93.33
2018-10-11T07:25:10.388Z,27.30
2018-10-11T07:27:38.623Z,24.00
2018-10-11T07:30:07.314Z,27.37
2018-10-11T07:32:35.547Z,29.53
2018-10-11T07:35:03.994Z,26.43
2018-10-11T07:37:32.121Z,23.27
2018-10-11T07:40:00.376Z,23.33
2018-10-11T07:42:28.622Z,22.63
2018-10-11T07:44:56.871Z,24.30
2018-10-11T07:47:25.161Z,28.23
2018-10-11T07:49:53.398Z,24.73
2018-10-11T07:52:21.638Z,24.63
2018-10-11T07:54:53.582Z,25.00
2018-10-11T07:57:21.788Z,26.93
2018-10-11T07:59:50.071Z,26.40
2018-10-11T08:02:18.342Z,23.37
2018-10-11T08:04:46.690Z,26.33
2018-10-11T08:07:14.974Z,24.03
2018-10-11T08:09:43.238Z,23.60
2018-10-11T08:12:11.454Z,30.87
2018-10-11T08:14:39.725Z,23.50
2018-10-11T08:17:08.367Z,27.10
2018-10-11T08:19:36.308Z,21.63
2018-10-11T08:22:05.671Z,28.00
2018-10-11T08:24:33.935Z,22.17
2018-10-11T08:27:02.188Z,23.07
2018-10-11T08:29:30.411Z,29.33
2018-10-11T08:31:58.653Z,31.20
2018-10-11T08:34:26.906Z,30.57
2018-10-11T08:36:55.114Z,20.97
2018-10-11T08:39:27.066Z,26.77
2018-10-11T08:41:55.345Z,31.10
2018-10-11T08:44:23.558Z,21.00
2018-10-11T08:46:55.207Z,21.50
2018-10-11T08:49:23.451Z,22.30
2018-10-11T08:51:51.777Z,21.37
2018-10-11T08:54:25.393Z,18.80
2018-10-11T08:56:53.622Z,20.30
2018-10-11T08:59:22.033Z,19.43
2018-10-11T09:01:50.167Z,20.63
2018-10-11T09:04:21.514Z,18.67
2018-10-11T09:06:49.751Z,19.47
2018-10-11T09:09:17.989Z,22.23
2018-10-11T09:11:46.214Z,19.37
2018-10-11T09:14:14.458Z,23.33
2018-10-11T09:16:42.750Z,19.67
2018-10-11T09:19:10.990Z,19.40
2018-10-11T09:21:39.245Z,19.97
2018-10-11T09:24:07.521Z,20.30
2018-10-11T09:26:35.855Z,21.13
2018-10-11T09:29:04.075Z,18.90
2018-10-11T09:31:32.310Z,18.80
2018-10-11T09:34:00.546Z,19.97
2018-10-11T09:36:29.044Z,22.83
2018-10-11T09:38:57.217Z,17.40
2018-10-11T09:41:25.418Z,20.30
2018-10-11T09:43:53.687Z,19.07
2018-10-11T09:46:21.893Z,19.67
2018-10-11T09:48:50.269Z,22.87
2018-10-11T09:51:18.394Z,20.57
2018-10-11T09:53:46.742Z,18.53
2018-10-11T09:56:15.062Z,18.27
2018-10-11T09:58:43.309Z,18.20
2018-10-11T10:01:16.885Z,17.97
2018-10-11T10:03:45.147Z,20.00
2018-10-11T10:06:13.506Z,21.73
2018-10-11T10:08:42.775Z,18.53
2018-10-11T10:11:11.017Z,17.77
2018-10-11T10:13:39.256Z,21.70
2018-10-11T10:16:07.537Z,23.97
2018-10-11T10:18:35.833Z,18.80
2018-10-11T10:21:04.064Z,20.13
2018-10-11T10:23:32.291Z,21.20
2018-10-11T10:26:00.497Z,19.00
2018-10-11T10:28:28.698Z,16.20
2018-10-11T10:30:56.947Z,19.43
2018-10-11T10:33:25.900Z,17.40
2018-10-11T10:35:54.113Z,21.80
2018-10-11T10:38:23.296Z,19.60
2018-10-11T10:40:51.696Z,17.53
2018-10-11T10:43:20.063Z,16.97
2018-10-11T10:45:48.348Z,16.70
2018-10-11T10:48:16.572Z,17.37
2018-10-11T10:50:44.897Z,18.17
2018-10-11T10:53:13.110Z,16.93
2018-10-11T10:55:43.563Z,16.57
2018-10-11T10:58:11.756Z,16.83
2018-10-11T11:00:40.027Z,18.87
2018-10-11T11:03:08.258Z,17.93
2018-10-11T11:05:36.684Z,20.30
2018-10-11T11:08:04.942Z,19.97
2018-10-11T11:10:34.831Z,19.80
2018-10-11T11:13:03.089Z,18.33
2018-10-11T11:15:33.342Z,21.83
2018-10-11T11:18:02.668Z,19.90
2018-10-11T11:20:31.021Z,20.00
2018-10-11T11:22:59.338Z,19.40
2018-10-11T11:25:27.647Z,17.93
2018-10-11T11:27:57.990Z,19.30
2018-10-11T11:30:26.217Z,20.47
2018-10-11T11:32:54.738Z,16.60
2018-10-11T11:35:22.950Z,17.37
2018-10-11T11:37:51.191Z,16.77
2018-10-11T11:40:19.479Z,18.53
2018-10-11T11:42:47.685Z,17.57
2018-10-11T11:45:15.893Z,19.60
2018-10-11T11:47:44.108Z,17.83
2018-10-11T11:50:18.298Z,18.17
2018-10-11T11:52:46.580Z,17.20
2018-10-11T11:55:14.786Z,20.27
2018-10-11T11:57:43.030Z,16.37
2018-10-11T12:00:11.270Z,17.40
2018-10-11T12:02:39.512Z,15.77
2018-10-11T12:05:07.852Z,15.43
2018-10-11T12:07:39.677Z,17.87
2018-10-11T12:10:09.006Z,18.33
2018-10-11T12:12:54.832Z,16.97
2018-10-11T12:15:24.857Z,18.80
2018-10-11T12:17:58.075Z,15.30
2018-10-11T12:20:27.714Z,15.13
2018-10-11T12:23:00.180Z,15.97
2018-10-11T12:25:29.789Z,16.30
2018-10-11T12:27:59.165Z,15.03
2018-10-11T12:30:29.219Z,18.60
2018-10-11T12:32:57.503Z,15.13
2018-10-11T12:35:26.181Z,17.93
2018-10-11T12:37:54.420Z,14.77
2018-10-11T12:40:23.508Z,15.17
2018-10-11T12:42:50.963Z,16.10
2018-10-11T12:45:19.539Z,17.57
2018-10-11T12:47:47.863Z,17.13
2018-10-11T12:50:16.082Z,14.27
2018-10-11T12:52:44.357Z,15.60
2018-10-11T12:55:12.714Z,14.53
2018-10-11T12:57:41.132Z,12.70
2018-10-11T13:00:13.134Z,14.93
2018-10-11T13:02:41.420Z,16.33
2018-10-11T13:05:09.615Z,14.33
2018-10-11T13:07:37.817Z,14.03
2018-10-11T13:10:06.109Z,13.20
2018-10-11T13:12:34.478Z,14.80
2018-10-11T13:15:03.015Z,15.27
2018-10-11T13:17:42.813Z,14.57
2018-10-11T13:20:07.835Z,13.90
2018-10-11T13:22:36.046Z,17.37
2018-10-11T13:25:04.330Z,16.27
2018-10-11T13:27:32.657Z,15.07
2018-10-11T13:30:02.045Z,20.13
2018-10-11T13:32:30.515Z,17.93
2018-10-11T13:34:58.770Z,12.80
2018-10-11T13:37:26.940Z,13.50
2018-10-11T13:39:57.690Z,14.03
2018-10-11T13:42:23.369Z,15.67
2018-10-11T13:44:51.590Z,16.33
2018-10-11T13:47:19.896Z,13.80
2018-10-11T13:49:48.064Z,15.27
2018-10-11T13:52:19.285Z,17.87
2018-10-11T13:54:45.403Z,13.77
2018-10-11T13:57:13.659Z,14.27
2018-10-11T13:59:41.875Z,12.90
2018-10-11T14:02:10.093Z,14.63
2018-10-11T14:04:38.358Z,11.70
2018-10-11T14:07:06.571Z,15.33
2018-10-11T14:09:34.828Z,12.63
2018-10-11T14:12:03.050Z,14.03
2018-10-11T14:14:31.441Z,13.67
2018-10-11T14:16:59.697Z,10.10
2018-10-11T14:19:27.942Z,10.43
2018-10-11T14:21:56.137Z,12.57
2018-10-11T14:24:24.378Z,10.17
2018-10-11T14:26:52.622Z,11.20
2018-10-11T14:29:20.845Z,13.87
2018-10-11T14:31:49.061Z,10.63
2018-10-11T14:34:17.287Z,18.23
2018-10-11T14:36:45.639Z,10.73
2018-10-11T14:39:13.778Z,10.83
2018-10-11T14:41:41.989Z,10.87
2018-10-11T14:44:10.198Z,13.60
2018-10-11T14:46:38.433Z,13.13
2018-10-11T14:49:06.734Z,10.57
2018-10-11T14:51:34.928Z,12.23
2018-10-11T14:54:03.187Z,13.77
2018-10-11T14:56:31.356Z,13.37
2018-10-11T14:58:59.593Z,15.67
2018-10-11T15:01:27.812Z,10.47
2018-10-11T15:03:56.041Z,12.70
2018-10-11T15:06:24.242Z,9.83
2018-10-11T15:08:52.492Z,13.80
2018-10-11T15:11:20.864Z,10.00
2018-10-11T15:13:49.041Z,12.07
2018-10-11T15:16:17.248Z,10.23
2018-10-11T15:18:45.466Z,13.03
2018-10-11T15:21:13.658Z,12.80
2018-10-11T15:23:41.858Z,12.20
2018-10-11T15:26:10.145Z,12.50
2018-10-11T15:28:38.369Z,11.30
2018-10-11T15:31:06.705Z,10.70
2018-10-11T15:33:34.928Z,14.67
2018-10-11T15:36:03.136Z,12.57
2018-10-11T15:38:31.362Z,11.13
2018-10-11T15:40:59.614Z,14.50
2018-10-11T15:43:27.846Z,10.93
2018-10-11T15:45:56.057Z,11.93
2018-10-11T15:48:24.304Z,11.23
2018-10-11T15:50:52.496Z,9.23
2018-10-11T15:53:20.737Z,8.90
2018-10-11T15:55:48.952Z,7.03
2018-10-11T15:58:17.224Z,8.70
2018-10-11T16:00:46.009Z,8.80
2018-10-11T16:03:14.237Z,9.27
2018-10-11T16:05:42.582Z,10.00
2018-10-11T16:08:10.752Z,11.83
2018-10-11T16:10:38.960Z,12.87
2018-10-11T16:13:07.168Z,9.00
2018-10-11T16:15:35.398Z,10.53
2018-10-11T16:18:03.607Z,9.70
2018-10-11T16:20:31.825Z,9.03
2018-10-11T16:23:00.052Z,9.17
2018-10-11T16:25:28.270Z,10.60
2018-10-11T16:27:56.465Z,9.00
2018-10-11T16:30:24.718Z,10.57
2018-10-11T16:32:52.924Z,9.80
2018-10-11T16:35:21.155Z,10.63
2018-10-11T16:37:49.354Z,11.47
2018-10-11T16:40:17.593Z,12.37
2018-10-11T16:42:45.865Z,12.80
2018-10-11T16:45:14.121Z,14.30
2018-10-11T16:47:43.578Z,11.40
2018-10-11T16:50:11.821Z,13.17
2018-10-11T16:52:42.065Z,13.37
2018-10-11T16:55:10.267Z,14.03
2018-10-11T16:57:38.553Z,14.30
2018-10-11T17:00:07.074Z,13.37
2018-10-11T17:02:35.387Z,14.23
2018-10-11T17:05:03.661Z,12.53
2018-10-11T17:07:31.918Z,15.47
2018-10-11T17:10:00.249Z,15.53
2018-10-11T17:12:28.421Z,14.33
2018-10-11T17:14:56.642Z,14.33
2018-10-11T17:17:24.847Z,14.33
2018-10-11T17:19:53.082Z,18.13
2018-10-11T17:22:21.332Z,16.97
2018-10-11T17:24:49.618Z,12.03
2018-10-11T17:27:17.821Z,15.73
2018-10-11T17:29:46.119Z,18.50
2018-10-11T17:32:14.292Z,17.30
2018-10-11T17:34:42.565Z,16.37
2018-10-11T17:37:10.857Z,16.03
2018-10-11T17:39:39.065Z,13.03
2018-10-11T17:42:07.315Z,13.33
2018-10-11T17:44:35.512Z,14.13
2018-10-11T17:47:03.799Z,14.40
2018-10-11T17:49:36.377Z,18.93
2018-10-11T17:52:04.610Z,16.33
2018-10-11T17:54:32.846Z,19.23
2018-10-11T17:57:01.069Z,18.07
2018-10-11T17:59:29.331Z,16.53
2018-10-11T18:01:57.542Z,16.40
2018-10-11T18:04:25.744Z,17.00
2018-10-11T18:06:53.969Z,18.27
2018-10-11T18:09:23.266Z,18.07
2018-10-11T18:11:51.518Z,17.37
2018-10-11T18:14:19.731Z,16.93
2018-10-11T18:16:47.970Z,16.87
2018-10-11T18:19:16.230Z,16.67
2018-10-11T18:21:44.506Z,19.03
2018-10-11T18:24:12.665Z,19.20
2018-10-11T18:26:40.944Z,17.13
2018-10-11T18:29:09.716Z,21.03
2018-10-11T18:31:38.952Z,18.40
2018-10-11T18:34:07.337Z,21.17
2018-10-11T18:36:35.622Z,19.67
2018-10-11T18:39:05.188Z,16.50
2018-10-11T18:41:33.397Z,19.23
2018-10-11T18:44:01.621Z,17.50
2018-10-11T18:46:29.873Z,18.57
2018-10-11T18:48:58.102Z,21.60
2018-10-11T18:51:26.316Z,18.80
2018-10-11T18:53:54.532Z,18.67
2018-10-11T18:56:22.769Z,17.03
2018-10-11T18:58:51.001Z,17.23
2018-10-11T19:01:19.207Z,17.23
2018-10-11T19:03:47.447Z,17.77
2018-10-11T19:06:16.791Z,19.07
2018-10-11T19:08:44.953Z,18.03
2018-10-11T19:11:13.177Z,17.53
2018-10-11T19:13:41.440Z,18.73
2018-10-11T19:16:09.929Z,17.43
2018-10-11T19:18:38.145Z,22.93
2018-10-11T19:21:06.419Z,20.10
2018-10-11T19:23:34.703Z,19.77
2018-10-11T19:26:02.989Z,19.67
2018-10-11T19:28:31.403Z,21.93
2018-10-11T19:30:59.746Z,18.30
2018-10-11T19:33:28.109Z,20.27
2018-10-11T19:35:56.418Z,19.60
2018-10-11T19:38:24.637Z,17.23
2018-10-11T19:40:52.868Z,18.70
2018-10-11T19:43:21.062Z,23.97
2018-10-11T19:45:49.272Z,19.03
2018-10-11T19:48:17.791Z,17.90
2018-10-11T19:50:46.066Z,18.90
2018-10-11T19:53:14.264Z,20.63
2018-10-11T19:55:42.508Z,21.87
2018-10-11T19:58:10.761Z,20.43
2018-10-11T20:00:38.997Z,19.77
2018-10-11T20:03:07.202Z,21.00
2018-10-11T20:05:35.417Z,23.23
2018-10-11T20:08:03.716Z,20.53
2018-10-11T20:10:31.888Z,20.33
2018-10-11T20:13:00.132Z,21.43
2018-10-11T20:15:28.359Z,20.00
2018-10-11T20:17:56.556Z,19.37
2018-10-11T20:20:24.816Z,24.03
2018-10-11T20:22:53.058Z,21.20
2018-10-11T20:25:21.261Z,20.30
2018-10-11T20:27:49.460Z,19.53
2018-10-11T20:30:17.682Z,17.33
2018-10-11T20:32:45.890Z,22.60
2018-10-11T20:35:14.131Z,26.83
2018-10-11T20:37:42.373Z,20.57
2018-10-11T20:40:10.582Z,21.07
2018-10-11T20:42:38.792Z,20.83
2018-10-11T20:45:07.038Z,22.30
2018-10-11T20:47:35.353Z,19.03
2018-10-11T20:50:03.643Z,20.03
2018-10-11T20:52:31.886Z,21.00
2018-10-11T20:55:00.120Z,23.53
2018-10-11T20:57:28.402Z,19.37
2018-10-11T20:59:56.542Z,23.00
2018-10-11T21:02:24.765Z,19.17
2018-10-11T21:04:52.978Z,18.73
2018-10-11T21:07:21.200Z,21.10
2018-10-11T21:09:49.425Z,19.10
2018-10-11T21:12:17.633Z,24.70
2018-10-11T21:14:45.868Z,24.37
2018-10-11T21:17:14.131Z,19.17
2018-10-11T21:19:42.367Z,21.07
2018-10-11T21:22:10.570Z,18.10
2018-10-11T21:24:38.777Z,21.60
2018-10-11T21:27:07.074Z,20.13
2018-10-11T21:29:35.308Z,21.87
2018-10-11T21:32:03.534Z,22.13
2018-10-11T21:34:31.809Z,21.97
2018-10-11T21:36:59.966Z,21.23
2018-10-11T21:39:28.170Z,23.10
2018-10-11T21:41:56.397Z,23.23
2018-10-11T21:44:24.622Z,20.40
2018-10-11T21:46:52.845Z,23.53
2018-10-11T21:49:21.046Z,19.77
2018-10-11T21:51:49.260Z,22.10
2018-10-11T21:54:17.461Z,22.40
2018-10-11T21:56:45.677Z,22.70
2018-10-11T21:59:13.909Z,23.90
2018-10-11T22:01:42.117Z,21.87
2018-10-11T22:04:10.365Z,20.07
2018-10-11T22:06:38.604Z,19.97
2018-10-11T22:09:07.378Z,20.67
2018-10-11T22:11:39.142Z,22.47
2018-10-11T22:14:07.365Z,18.50
2018-10-11T22:16:35.574Z,24.37
2018-10-11T22:19:03.861Z,21.93
2018-10-11T22:21:32.100Z,22.60
2018-10-11T22:24:00.369Z,23.20
2018-10-11T22:26:28.565Z,20.57
2018-10-11T22:28:56.764Z,18.77
2018-10-11T22:31:25.012Z,21.00
2018-10-11T22:33:53.261Z,19.60
2018-10-11T22:36:22.393Z,19.03
2018-10-11T22:38:50.661Z,18.30
2018-10-11T22:41:18.916Z,19.43
2018-10-11T22:43:47.393Z,19.03
2018-10-11T22:46:15.670Z,17.70
2018-10-11T22:48:43.925Z,21.20
2018-10-11T22:51:12.349Z,21.27
2018-10-11T22:53:40.845Z,21.77
2018-10-11T22:56:09.115Z,19.63
2018-10-11T22:58:37.344Z,19.87
2018-10-11T23:01:06.735Z,19.40
2018-10-11T23:03:34.927Z,19.53
2018-10-11T23:06:03.171Z,19.67
2018-10-11T23:08:31.396Z,20.33
2018-10-11T23:10:59.601Z,18.83
2018-10-11T23:13:27.800Z,20.10
2018-10-11T23:15:56.029Z,16.67
2018-10-11T23:18:24.248Z,19.43
2018-10-11T23:20:52.489Z,16.00
2018-10-11T23:23:20.688Z,17.23
2018-10-11T23:25:48.933Z,16.60
2018-10-11T23:28:17.117Z,17.87
2018-10-11T23:30:45.349Z,19.43
2018-10-11T23:33:13.577Z,18.10
2018-10-11T23:35:41.827Z,25.53
2018-10-11T23:38:10.049Z,16.90
2018-10-11T23:40:38.292Z,17.20
2018-10-11T23:43:06.772Z,22.07
2018-10-11T23:45:34.973Z,18.00
2018-10-11T23:48:03.214Z,17.80
2018-10-11T23:50:31.441Z,18.57
2018-10-11T23:52:59.671Z,15.83
2018-10-11T23:55:27.934Z,17.83
2018-10-11T23:57:56.187Z,17.60
